Time;durP1;ratioP1;P1;durP2;ratioP2;P2;SDS_P1;SDS_P2;PMS_P1;PMS_P2;Temp;Humidity;BMP_temperature;BMP_pressure;BME280_temperature;BME280_humidity;BME280_pressure;Samples;Min_cycle;Max_cycle;Signal;HPM_P1;HPM_P2
2021/04/06 00:00:29;;;;;;;10.20;1.58;;;;;;;-2.46;100.00;99603.03;5086665;28;20032;-82
2021/04/06 00:02:58;;;;;;;7.65;1.45;;;;;;;-2.53;100.00;99600.31;5084532;28;20459;-82
2021/04/06 00:05:25;;;;;;;6.78;1.95;;;;;;;-2.54;100.00;99604.53;5081737;28;20017;-82
2021/04/06 00:07:51;;;;;;;6.32;1.35;;;;;;;-2.53;100.00;99595.25;5080593;28;20028;-82
2021/04/06 00:10:21;;;;;;;8.65;1.40;;;;;;;-2.56;100.00;99599.44;5082198;28;20040;-82
2021/04/06 00:12:49;;;;;;;8.95;1.38;;;;;;;-2.58;100.00;99603.63;5082705;28;20029;-82
2021/04/06 00:15:17;;;;;;;5.68;1.42;;;;;;;-2.58;100.00;99600.25;5082076;28;20030;-82
2021/04/06 00:17:45;;;;;;;6.50;1.50;;;;;;;-2.60;100.00;99600.22;5083069;28;20027;-82
2021/04/06 00:20:11;;;;;;;7.57;1.58;;;;;;;-2.62;100.00;99599.34;5065075;28;20096;-82
2021/04/06 00:22:38;;;;;;;8.63;2.63;;;;;;;-2.64;100.00;99605.22;5082045;28;20031;-82
2021/04/06 00:25:07;;;;;;;7.78;1.55;;;;;;;-2.63;100.00;99601.84;5064560;28;20020;-82
2021/04/06 00:27:41;;;;;;;10.80;1.65;;;;;;;-2.65;100.00;99601.81;5081972;28;20025;-82
2021/04/06 00:30:12;;;;;;;9.77;2.15;;;;;;;-2.61;100.00;99600.19;5084147;28;20043;-82
2021/04/06 00:32:38;;;;;;;7.38;1.27;;;;;;;-2.63;100.00;99599.28;5068125;28;20088;-82
2021/04/06 00:35:07;;;;;;;6.28;1.52;;;;;;;-2.57;100.00;99599.41;5085153;28;20489;-82
2021/04/06 00:37:35;;;;;;;6.97;1.42;;;;;;;-2.50;100.00;99600.38;5081558;28;20027;-82
2021/04/06 00:40:07;;;;;;;7.93;1.67;;;;;;;-2.42;100.00;99593.78;5081798;28;20123;-82
2021/04/06 00:42:34;;;;;;;6.60;1.38;;;;;;;-2.45;100.00;99601.34;5082859;28;20020;-82
2021/04/06 00:45:05;;;;;;;5.03;1.30;;;;;;;-2.51;100.00;99593.59;5082792;28;20024;-82
2021/04/06 00:47:31;;;;;;;5.95;1.20;;;;;;;-2.53;100.00;99591.03;5080953;28;20577;-82
2021/04/06 00:50:02;;;;;;;7.05;1.65;;;;;;;-2.55;100.00;99597.78;5082555;28;20029;-82
2021/04/06 00:52:28;;;;;;;7.28;1.65;;;;;;;-2.52;100.00;99600.38;5064806;28;20017;-82
2021/04/06 00:54:56;;;;;;;6.97;1.65;;;;;;;-2.43;100.00;99595.47;5083386;28;20036;-82
2021/04/06 00:57:30;;;;;;;6.35;1.50;;;;;;;-2.43;100.00;99586.97;5082615;28;20100;-82
2021/04/06 01:00:18;;;;;;;4.90;1.23;;;;;;;-2.45;100.00;99594.56;5083940;28;20088;-82
2021/04/06 01:03:03;;;;;;;6.53;1.80;;;;;;;-2.41;100.00;99600.56;5082497;28;20041;-82
2021/04/06 01:05:32;;;;;;;5.63;1.33;;;;;;;-2.41;100.00;99590.41;5084076;28;20020;-82
2021/04/06 01:07:58;;;;;;;9.10;2.70;;;;;;;-2.45;100.00;99588.63;5080323;28;20542;-82
2021/04/06 01:10:26;;;;;;;4.18;1.77;;;;;;;-2.44;100.00;99596.25;5082097;28;20111;-82
2021/04/06 01:12:52;;;;;;;8.00;1.55;;;;;;;-2.48;100.00;99602.13;5082037;28;20029;-82
2021/04/06 01:15:20;;;;;;;7.50;2.88;;;;;;;-2.46;100.00;99597.94;5082088;28;20027;-82
2021/04/06 01:17:46;;;;;;;9.23;2.55;;;;;;;-2.48;100.00;99591.13;5079671;28;20013;-82
2021/04/06 01:20:15;;;;;;;7.95;1.45;;;;;;;-2.52;100.00;99607.09;5082213;28;20050;-82
2021/04/06 01:22:41;;;;;;;6.78;1.60;;;;;;;-2.47;100.00;99598.75;5063004;28;20024;-82
2021/04/06 01:25:22;;;;;;;8.23;1.60;;;;;;;-2.46;100.00;99607.22;5063845;28;20131;-82
2021/04/06 01:27:48;;;;;;;4.88;1.30;;;;;;;-2.42;100.00;99609.84;5081123;28;20537;-82
2021/04/06 01:30:15;;;;;;;7.25;1.80;;;;;;;-2.39;100.00;99604.84;5081410;28;20028;-82
2021/04/06 01:32:42;;;;;;;5.85;1.60;;;;;;;-2.38;100.00;99598.06;5082075;28;20028;-82
2021/04/06 01:35:09;;;;;;;5.68;1.40;;;;;;;-2.39;100.00;99593.81;5082282;28;20028;-82
2021/04/06 01:37:34;;;;;;;8.07;1.40;;;;;;;-2.41;100.00;99585.31;5087139;28;20031;-82
2021/04/06 01:40:02;;;;;;;5.65;1.40;;;;;;;-2.41;100.00;99592.94;5063751;28;20036;-83
2021/04/06 01:42:31;;;;;;;6.50;1.60;;;;;;;-2.41;100.00;99596.31;5082989;28;20381;-83
2021/04/06 01:44:58;;;;;;;5.15;1.55;;;;;;;-2.32;100.00;99593.09;5083375;28;20023;-82
2021/04/06 01:47:26;;;;;;;3.85;1.40;;;;;;;-2.24;100.00;99576.31;5080708;28;20028;-82
2021/04/06 01:49:51;;;;;;;6.30;1.58;;;;;;;-2.21;100.00;99578.91;5079612;28;20150;-83
2021/04/06 01:52:17;;;;;;;5.22;1.50;;;;;;;-2.22;100.00;99571.25;5081350;28;20033;-83
2021/04/06 01:54:44;;;;;;;8.18;2.20;;;;;;;-2.27;100.00;99568.66;5080932;28;20031;-82
2021/04/06 01:57:14;;;;;;;8.20;1.75;;;;;;;-2.31;100.00;99569.41;5081020;28;20028;-82
2021/04/06 02:00:06;;;;;;;6.05;1.27;;;;;;;-2.32;100.00;99572.78;5063735;28;20472;-83
2021/04/06 02:02:28;;;;;;;4.35;1.45;;;;;;;-2.32;100.00;99572.78;5082304;28;20044;-83
2021/04/06 02:04:58;;;;;;;6.30;1.50;;;;;;;-2.37;100.00;99569.31;5081429;28;20027;-83
2021/04/06 02:07:32;;;;;;;9.00;1.40;;;;;;;-2.36;100.00;99576.09;5083344;28;20067;-82
2021/04/06 02:09:58;;;;;;;6.33;1.40;;;;;;;-2.38;100.00;99580.28;5084556;28;20035;-82
2021/04/06 02:12:24;;;;;;;3.78;0.95;;;;;;;-2.38;100.00;99582.84;5084692;28;20259;-82
2021/04/06 02:14:57;;;;;;;6.85;1.70;;;;;;;-2.35;100.00;99572.72;5080283;28;20028;-82
2021/04/06 02:17:23;;;;;;;5.10;1.20;;;;;;;-2.41;100.00;99581.09;5078836;28;20031;-82
2021/04/06 02:19:48;;;;;;;5.97;1.33;;;;;;;-2.38;100.00;99583.69;5080132;28;20044;-82
2021/04/06 02:22:20;;;;;;;6.60;1.55;;;;;;;-2.39;100.00;99583.66;5079070;28;20021;-82
2021/04/06 02:24:48;;;;;;;8.18;1.70;;;;;;;-2.42;100.00;99581.94;5080849;28;20031;-82
2021/04/06 02:27:16;;;;;;;7.63;1.58;;;;;;;-2.45;100.00;99584.41;5079624;28;20028;-82
2021/04/06 02:29:44;;;;;;;6.72;1.83;;;;;;;-2.41;100.00;99577.69;5081688;28;20032;-82
2021/04/06 02:32:19;;;;;;;7.75;1.55;;;;;;;-2.38;100.00;99575.22;5079573;28;20050;-82
2021/04/06 02:34:50;;;;;;;7.65;1.40;;;;;;;-2.34;100.00;99577.84;5064216;28;20115;-83
2021/04/06 02:37:24;;;;;;;5.60;1.25;;;;;;;-2.26;100.00;99572.03;5080852;28;20020;-82
2021/04/06 02:39:51;;;;;;;5.65;1.60;;;;;;;-2.19;100.00;99572.16;5080127;28;20091;-83
2021/04/06 02:42:19;;;;;;;5.82;1.33;;;;;;;-2.12;100.00;99568.91;5064356;28;20480;-83
2021/04/06 02:44:45;;;;;;;6.60;1.60;;;;;;;-2.04;100.00;99570.72;5082608;28;20384;-83
2021/04/06 02:47:10;;;;;;;6.47;1.40;;;;;;;-1.95;100.00;99591.19;5082576;28;20031;-82
2021/04/06 02:49:36;;;;;;;4.90;1.20;;;;;;;-1.91;100.00;99603.09;5084520;28;20024;-83
2021/04/06 02:52:02;;;;;;;4.88;1.40;;;;;;;-1.88;100.00;99603.16;5063827;28;20032;-83
2021/04/06 02:54:27;;;;;;;6.75;1.27;;;;;;;-1.79;100.00;99602.47;5080246;28;20029;-82
2021/04/06 02:56:52;;;;;;;8.68;1.65;;;;;;;-1.73;100.00;99605.09;5081033;28;20123;-83
2021/04/06 02:59:19;;;;;;;9.48;1.77;;;;;;;-1.69;100.00;99612.81;5079469;28;20040;-83
2021/04/06 03:01:46;;;;;;;9.82;2.70;;;;;;;-1.66;100.00;99604.38;5082159;28;20028;-83
2021/04/06 03:04:24;;;;;;;10.05;2.13;;;;;;;-1.58;100.00;99597.72;5080665;28;20023;-83
2021/04/06 03:06:54;;;;;;;7.75;1.50;;;;;;;-1.57;100.00;99603.63;5066592;28;20031;-83
2021/04/06 03:09:25;;;;;;;10.77;1.50;;;;;;;-1.56;100.00;99606.22;5066843;28;20017;-83
2021/04/06 03:11:52;;;;;;;9.27;1.52;;;;;;;-1.59;100.00;99602.78;5066313;28;20615;-83
2021/04/06 03:14:25;;;;;;;4.97;1.17;;;;;;;-1.62;100.00;99594.28;5083872;28;20071;-83
2021/04/06 03:16:52;;;;;;;7.88;1.73;;;;;;;-1.68;100.00;99589.09;5084231;28;20039;-82
2021/04/06 03:19:27;;;;;;;7.25;1.38;;;;;;;-1.73;100.00;99593.25;5085109;28;20476;-83
2021/04/06 03:21:53;;;;;;;8.75;1.90;;;;;;;-1.75;100.00;99589.84;5086180;28;20031;-83
2021/04/06 03:24:18;;;;;;;12.15;2.08;;;;;;;-1.73;100.00;99589.84;5082024;28;20156;-83
2021/04/06 03:26:43;;;;;;;7.80;1.75;;;;;;;-1.71;100.00;99583.97;5065133;28;20032;-83
2021/04/06 03:29:10;;;;;;;10.77;2.05;;;;;;;-1.72;100.00;99578.88;5081919;28;20092;-83
2021/04/06 03:31:35;;;;;;;6.90;1.80;;;;;;;-1.70;100.00;99592.44;5084193;28;20029;-83
2021/04/06 03:34:01;;;;;;;6.90;2.75;;;;;;;-1.72;100.00;99589.88;5081926;28;20050;-84
2021/04/06 03:36:31;;;;;;;8.32;1.40;;;;;;;-1.76;100.00;99582.16;5082117;28;20032;-83
2021/04/06 03:39:00;;;;;;;13.10;1.83;;;;;;;-1.73;100.00;99578.00;5065153;28;20016;-83
2021/04/06 03:41:27;;;;;;;10.60;2.15;;;;;;;-1.66;100.00;99571.34;5083607;28;20385;-83
2021/04/06 03:44:01;;;;;;;11.75;1.67;;;;;;;-1.67;100.00;99579.78;5083617;28;20020;-83
2021/04/06 03:46:26;;;;;;;5.25;1.50;;;;;;;-1.65;100.00;99560.31;5083628;28;20082;-83
2021/04/06 03:48:52;;;;;;;6.60;1.50;;;;;;;-1.60;100.00;99557.84;5081744;28;20472;-83
2021/04/06 03:51:29;;;;;;;6.53;1.77;;;;;;;-1.55;100.00;99564.69;5081600;28;20023;-83
2021/04/06 03:53:56;;;;;;;9.50;1.98;;;;;;;-1.54;100.00;99570.63;5065200;28;20024;-83
2021/04/06 03:56:31;;;;;;;6.63;1.67;;;;;;;-1.53;100.00;99564.75;5081734;28;20024;-84
2021/04/06 03:58:58;;;;;;;11.07;1.80;;;;;;;-1.47;100.00;99572.47;5063516;28;20027;-83
2021/04/06 04:01:25;;;;;;;9.10;1.40;;;;;;;-1.47;100.00;99567.38;5081951;28;20028;-84
2021/04/06 04:03:57;;;;;;;7.60;1.77;;;;;;;-1.46;100.00;99571.63;5082838;28;20020;-83
2021/04/06 04:06:25;;;;;;;11.55;1.75;;;;;;;-1.42;100.00;99570.81;5082738;28;20031;-83
2021/04/06 04:08:51;;;;;;;13.68;1.98;;;;;;;-1.41;100.00;99564.91;5081482;28;20032;-83
2021/04/06 04:11:17;;;;;;;13.63;1.92;;;;;;;-1.41;100.00;99568.31;5064959;28;20387;-83
2021/04/06 04:13:42;;;;;;;7.75;1.75;;;;;;;-1.43;100.00;99564.03;5081246;28;20027;-84
2021/04/06 04:16:07;;;;;;;8.27;1.73;;;;;;;-1.45;100.00;99561.47;5081473;28;20155;-83
2021/04/06 04:18:33;;;;;;;11.40;1.98;;;;;;;-1.49;100.00;99569.03;5081416;28;20488;-83
2021/04/06 04:21:01;;;;;;;11.57;1.92;;;;;;;-1.51;100.00;99569.03;5082764;28;20023;-83
2021/04/06 04:23:26;;;;;;;10.30;1.63;;;;;;;-1.59;100.00;99564.66;5065560;28;20054;-83
2021/04/06 04:25:52;;;;;;;11.43;2.00;;;;;;;-1.72;100.00;99561.06;5063643;28;20029;-84
2021/04/06 04:28:17;;;;;;;10.00;1.75;;;;;;;-1.76;100.00;99565.22;5080507;28;20035;-84
2021/04/06 04:30:47;;;;;;;9.15;2.22;;;;;;;-1.81;100.00;99568.56;5081950;28;20025;-83
2021/04/06 04:33:12;;;;;;;11.23;2.03;;;;;;;-1.84;100.00;99558.34;5083837;28;20552;-83
2021/04/06 04:35:38;;;;;;;8.77;1.63;;;;;;;-1.83;100.00;99560.03;5082508;28;20111;-83
2021/04/06 04:38:04;;;;;;;10.18;1.88;;;;;;;-1.83;100.00;99560.03;5082578;28;20024;-83
2021/04/06 04:40:30;;;;;;;13.38;2.22;;;;;;;-1.74;100.00;99550.88;5063334;28;20024;-83
2021/04/06 04:42:56;;;;;;;9.38;1.42;;;;;;;-1.66;100.00;99554.38;5080689;28;20020;-84
2021/04/06 04:45:22;;;;;;;13.60;2.42;;;;;;;-1.57;100.00;99563.84;5083061;28;20060;-83
2021/04/06 04:47:48;;;;;;;11.15;2.13;;;;;;;-1.49;100.00;99561.41;5066217;28;20025;-83
2021/04/06 04:50:14;;;;;;;15.32;1.95;;;;;;;-1.43;100.00;99561.47;5082957;28;20028;-83
2021/04/06 04:52:45;;;;;;;13.43;2.05;;;;;;;-1.44;100.00;99567.41;5083636;28;20373;-83
2021/04/06 04:55:15;;;;;;;10.57;1.77;;;;;;;-1.33;100.00;99560.75;5085384;28;20082;-83
2021/04/06 04:57:41;;;;;;;15.05;1.70;;;;;;;-1.33;100.00;99572.63;5083233;28;20111;-83
2021/04/06 05:00:08;;;;;;;16.25;2.13;;;;;;;-1.38;100.00;99569.19;5085690;28;20024;-83
2021/04/06 05:02:33;;;;;;;10.57;2.05;;;;;;;-1.42;100.00;99568.28;5083619;28;20056;-83
2021/04/06 05:04:58;;;;;;;11.45;1.80;;;;;;;-1.48;100.00;99568.19;5084205;28;20036;-83
2021/04/06 05:07:24;;;;;;;11.07;1.73;;;;;;;-1.50;100.00;99567.31;5083701;28;20028;-83
2021/04/06 05:09:49;;;;;;;10.90;1.77;;;;;;;-1.53;100.00;99580.00;5083344;28;20044;-83
2021/04/06 05:12:15;;;;;;;14.00;2.00;;;;;;;-1.49;100.00;99582.59;5082800;28;20070;-83
2021/04/06 05:14:40;;;;;;;17.73;1.70;;;;;;;-1.56;100.00;99567.25;5082242;28;20044;-83
2021/04/06 05:17:06;;;;;;;10.45;1.90;;;;;;;-1.58;100.00;99576.53;5065887;28;20036;-83
2021/04/06 05:19:31;;;;;;;13.48;2.08;;;;;;;-1.53;100.00;99570.69;5082508;28;20029;-83
2021/04/06 05:21:56;;;;;;;16.55;2.05;;;;;;;-1.57;100.00;99566.38;5078195;28;20032;-84
2021/04/06 05:24:21;;;;;;;12.35;1.92;;;;;;;-1.46;100.00;99582.63;5083021;28;20027;-83
2021/04/06 05:26:47;;;;;;;16.90;1.95;;;;;;;-1.35;100.00;99575.16;5079996;28;20473;-84
2021/04/06 05:29:12;;;;;;;13.25;1.77;;;;;;;-1.24;100.00;99590.56;5079920;28;20020;-83
2021/04/06 05:31:37;;;;;;;13.65;1.85;;;;;;;-1.03;100.00;99584.91;5084317;28;20032;-83
2021/04/06 05:34:02;;;;;;;13.95;2.85;;;;;;;-0.82;100.00;99586.88;5081268;28;20115;-83
2021/04/06 05:36:28;;;;;;;17.33;2.10;;;;;;;-0.90;100.00;99589.31;5080773;28;20481;-83
2021/04/06 05:38:53;;;;;;;13.02;2.13;;;;;;;-0.50;99.84;99599.94;5080427;28;20056;-83
2021/04/06 05:41:19;;;;;;;13.45;2.30;;;;;;;-0.27;98.09;99601.06;5081389;28;20021;-83
2021/04/06 05:43:46;;;;;;;12.00;2.13;;;;;;;-0.70;100.00;99599.75;5065681;28;20040;-83
2021/04/06 05:46:13;;;;;;;14.40;2.58;;;;;;;-0.77;100.00;99580.13;5081151;28;20055;-83
2021/04/06 05:48:39;;;;;;;12.95;2.67;;;;;;;-0.74;100.00;99588.69;5082181;28;20027;-83
2021/04/06 05:51:05;;;;;;;10.98;1.85;;;;;;;-0.66;100.00;99586.19;5082112;28;20020;-83
2021/04/06 05:53:30;;;;;;;11.45;1.77;;;;;;;-0.39;99.80;99598.38;5083139;28;20024;-83
2021/04/06 05:55:59;;;;;;;13.40;1.67;;;;;;;-0.33;98.46;99608.63;5064684;28;20025;-83
2021/04/06 05:58:25;;;;;;;14.32;2.30;;;;;;;-0.57;100.00;99618.56;5081108;28;20023;-83
2021/04/06 06:00:51;;;;;;;16.63;2.78;;;;;;;-0.70;100.00;99607.38;5063323;28;20028;-83
2021/04/06 06:03:16;;;;;;;11.88;1.95;;;;;;;-0.66;100.00;99600.63;5082824;28;20422;-83
2021/04/06 06:05:41;;;;;;;15.15;2.63;;;;;;;-0.78;100.00;99617.47;5080630;28;20020;-83
2021/04/06 06:08:10;;;;;;;18.30;2.53;;;;;;;-0.88;100.00;99614.78;5063803;28;20024;-83
2021/04/06 06:10:37;;;;;;;14.98;2.05;;;;;;;-0.95;100.00;99617.25;5080935;28;20595;-83
2021/04/06 06:13:23;;;;;;;14.57;2.28;;;;;;;-0.99;100.00;99604.47;5083340;28;20020;-83
2021/04/06 06:16:05;;;;;;;15.93;2.42;;;;;;;-0.86;100.00;99601.25;5065992;28;20396;-83
2021/04/06 06:18:30;;;;;;;10.48;1.75;;;;;;;-0.72;99.63;99603.97;5083542;28;20025;-83
2021/04/06 06:20:56;;;;;;;11.80;1.83;;;;;;;0.11;94.23;99603.09;5082984;28;20059;-83
2021/04/06 06:23:23;;;;;;;14.27;2.70;;;;;;;1.00;89.11;99598.59;5081149;28;20021;-83
2021/04/06 06:26:06;;;;;;;13.40;2.20;;;;;;;1.50;86.19;99592.81;5082598;28;20028;-83
2021/04/06 06:28:35;;;;;;;14.43;2.67;;;;;;;1.51;84.22;99596.22;5083322;28;20052;-82
2021/04/06 06:31:00;;;;;;;11.80;2.00;;;;;;;2.08;81.56;99602.31;5084742;28;20024;-83
2021/04/06 06:33:28;;;;;;;14.55;2.28;;;;;;;2.51;80.41;99587.78;5084419;28;20032;-82
2021/04/06 06:36:05;;;;;;;16.67;2.50;;;;;;;1.31;86.18;99601.28;5067326;28;20420;-83
2021/04/06 06:38:36;;;;;;;16.10;2.20;;;;;;;0.61;88.69;99597.50;5083253;28;20140;-83
2021/04/06 06:41:14;;;;;;;13.25;2.08;;;;;;;0.23;89.45;99595.56;5081245;28;20028;-83
2021/04/06 06:43:46;;;;;;;14.30;2.25;;;;;;;0.87;88.29;99597.69;5083986;28;20031;-84
2021/04/06 06:46:20;;;;;;;9.02;2.10;;;;;;;2.11;82.12;99606.56;5082942;28;20032;-84
2021/04/06 06:48:53;;;;;;;12.93;2.15;;;;;;;2.28;80.71;99605.72;5083249;28;20021;-82
2021/04/06 06:51:18;;;;;;;11.13;1.95;;;;;;;2.84;79.34;99596.28;5083361;28;20558;-83
2021/04/06 06:53:44;;;;;;;12.40;2.08;;;;;;;3.18;75.86;99585.91;5066118;28;20020;-83
2021/04/06 06:56:11;;;;;;;9.80;1.83;;;;;;;3.02;75.64;99594.50;5066438;28;20020;-81
2021/04/06 06:58:41;;;;;;;15.10;2.03;;;;;;;3.14;75.91;99595.34;5083069;28;20029;-81
2021/04/06 07:01:20;;;;;;;10.73;2.42;;;;;;;3.04;75.80;99590.22;5082301;28;20024;-81
2021/04/06 07:04:00;;;;;;;12.30;1.90;;;;;;;2.97;74.62;99589.41;5084753;28;20032;-81
2021/04/06 07:06:25;;;;;;;9.93;2.03;;;;;;;2.61;77.68;99588.63;5085174;28;20029;-81
2021/04/06 07:08:51;;;;;;;13.52;2.10;;;;;;;2.83;75.21;99591.13;5084262;28;20024;-81
2021/04/06 07:11:17;;;;;;;11.70;1.95;;;;;;;3.25;74.65;99585.03;5067685;28;20021;-80
2021/04/06 07:13:44;;;;;;;14.18;2.13;;;;;;;3.41;74.29;99578.13;5084763;28;20032;-80
2021/04/06 07:16:13;;;;;;;14.13;2.45;;;;;;;3.61;73.90;99576.31;5086775;28;20024;-81
2021/04/06 07:18:42;;;;;;;11.18;2.10;;;;;;;3.73;76.20;99574.53;5088005;28;20032;-80
2021/04/06 07:21:10;;;;;;;10.05;2.25;;;;;;;3.30;75.57;99585.88;5088705;28;20020;-80
2021/04/06 07:23:37;;;;;;;9.55;2.33;;;;;;;2.73;77.32;99580.91;5089483;28;20029;-80
2021/04/06 07:26:17;;;;;;;15.35;3.05;;;;;;;3.50;74.47;99583.19;5087969;28;20032;-80
2021/04/06 07:28:42;;;;;;;11.30;2.90;;;;;;;1.97;78.91;99599.75;5088634;28;20028;-80
2021/04/06 07:31:11;;;;;;;9.90;1.67;;;;;;;1.67;83.75;99600.53;5070559;28;20029;-80
2021/04/06 07:33:39;;;;;;;11.40;1.95;;;;;;;1.63;83.52;99595.41;5087626;28;20025;-80
2021/04/06 07:36:07;;;;;;;14.02;2.42;;;;;;;1.18;84.07;99599.53;5084701;28;20116;-80
2021/04/06 07:38:40;;;;;;;13.20;2.42;;;;;;;1.04;85.36;99602.84;5068929;28;20031;-80
2021/04/06 07:41:06;;;;;;;12.98;2.13;;;;;;;0.82;86.69;99609.56;5089289;28;20012;-79
2021/04/06 07:43:33;;;;;;;25.23;3.25;;;;;;;0.65;87.13;99598.41;5088336;28;20034;-79
2021/04/06 07:45:58;;;;;;;18.98;3.25;;;;;;;0.84;87.73;99604.47;5085749;28;20059;-79
2021/04/06 07:49:06;;;;;;;15.30;2.40;;;;;;;0.79;87.88;99593.38;5081444;28;20028;-79
2021/04/06 07:51:39;;;;;;;19.70;2.55;;;;;;;1.09;86.02;99590.97;4984285;28;20117;-80
2021/04/06 07:54:08;;;;;;;22.20;3.80;;;;;;;1.22;85.20;99593.59;5076456;28;20070;-81
2021/04/06 07:56:43;;;;;;;12.45;2.00;;;;;;;2.34;80.83;99574.19;5085078;28;20074;-80
2021/04/06 07:59:09;;;;;;;;;;;;;;;3.21;76.05;99578.22;5086455;28;20062;-80
2021/04/06 08:01:34;;;;;;;12.45;2.13;;;;;;;3.90;74.64;99577.81;5086671;28;19954;-80
2021/04/06 08:04:02;;;;;;;10.32;1.85;;;;;;;3.65;74.96;99582.25;5084453;28;20032;-80
2021/04/06 08:06:48;;;;;;;12.40;2.00;;;;;;;3.53;75.17;99569.50;5086845;28;20023;-80
2021/04/06 08:09:43;;;;;;;11.68;2.00;;;;;;;4.54;70.98;99571.31;5085078;28;20020;-80
2021/04/06 08:12:10;;;;;;;10.98;2.13;;;;;;;5.36;70.11;99569.53;5067902;28;20040;-80
2021/04/06 08:15:00;;;;;;;9.85;2.60;;;;;;;4.13;70.51;99580.22;5083958;28;20115;-80
2021/04/06 08:17:25;;;;;;;10.55;1.98;;;;;;;4.05;71.19;99569.16;5056387;28;20033;-80
2021/04/06 08:20:05;;;;;;;11.52;3.05;;;;;;;4.07;70.34;99570.00;5085459;28;20067;-80
2021/04/06 08:22:36;;;;;;;11.98;1.85;;;;;;;4.72;66.22;99572.84;5084157;28;20031;-80
2021/04/06 08:25:21;;;;;;;10.05;1.73;;;;;;;4.78;67.16;99565.94;5083040;28;20039;-80
2021/04/06 08:27:50;;;;;;;7.75;1.60;;;;;;;5.00;66.40;99560.53;5084484;28;20115;-80
2021/04/06 08:30:15;;;;;;;10.20;2.40;;;;;;;6.18;64.77;99562.34;5086608;28;20028;-80
2021/04/06 08:32:40;;;;;;;8.98;2.05;;;;;;;5.89;61.65;99564.50;5084950;28;20036;-80
2021/04/06 08:35:06;;;;;;;12.65;1.92;;;;;;;5.01;64.94;99560.50;5084145;28;20032;-80
2021/04/06 08:37:38;;;;;;;9.23;2.10;;;;;;;4.15;68.15;99574.19;5066663;28;20032;-80
2021/04/06 08:40:08;;;;;;;10.18;2.30;;;;;;;3.80;69.57;99577.03;5085823;28;20032;-80
2021/04/06 08:42:35;;;;;;;7.03;1.80;;;;;;;3.16;73.75;99582.50;5084564;28;20020;-81
2021/04/06 08:45:03;;;;;;;7.15;1.48;;;;;;;2.01;77.13;99586.09;5081750;28;20484;-81
2021/04/06 08:47:41;;;;;;;13.13;2.53;;;;;;;2.01;77.70;99595.50;5080978;28;20115;-81
2021/04/06 08:50:09;;;;;;;8.93;2.03;;;;;;;2.29;78.03;99591.22;5083092;28;20027;-80
2021/04/06 08:52:35;;;;;;;14.32;1.98;;;;;;;2.44;77.29;99590.38;5085599;28;20400;-81
2021/04/06 08:55:13;;;;;;;8.20;1.80;;;;;;;4.35;70.94;99579.19;5083497;28;20020;-80
2021/04/06 08:57:39;;;;;;;9.93;2.03;;;;;;;4.35;71.31;99563.78;5084377;28;20485;-80
2021/04/06 09:00:10;;;;;;;12.35;2.15;;;;;;;2.88;76.37;99566.38;5081220;28;20056;-80
2021/04/06 09:02:35;;;;;;;15.25;2.78;;;;;;;2.83;79.67;99571.50;5083443;28;20054;-80
2021/04/06 09:05:01;;;;;;;10.80;2.10;;;;;;;4.51;74.31;99564.47;5082430;28;20070;-80
2021/04/06 09:07:28;;;;;;;6.85;1.88;;;;;;;4.38;74.47;99558.63;5081880;28;20066;-80
2021/04/06 09:10:01;;;;;;;11.90;2.65;;;;;;;3.56;78.22;99567.78;5081491;28;20086;-80
2021/04/06 09:12:27;;;;;;;11.00;1.67;;;;;;;3.91;75.44;99572.69;5082796;28;20040;-80
2021/04/06 09:14:54;;;;;;;7.30;1.98;;;;;;;3.66;73.00;99568.56;5064289;28;20028;-80
2021/04/06 09:17:25;;;;;;;10.05;2.05;;;;;;;2.58;80.21;99577.53;5063035;28;20024;-80
2021/04/06 09:19:51;;;;;;;6.28;1.73;;;;;;;2.75;80.07;99566.41;5082865;28;20115;-80
2021/04/06 09:22:16;;;;;;;7.82;2.13;;;;;;;2.23;81.30;99566.50;5082825;28;20052;-80
2021/04/06 09:24:42;;;;;;;11.35;1.73;;;;;;;2.75;81.51;99568.13;5081879;28;20358;-80
2021/04/06 09:27:07;;;;;;;7.65;1.92;;;;;;;2.35;82.21;99575.88;5080850;28;20029;-80
2021/04/06 09:29:46;;;;;;;9.80;2.53;;;;;;;1.79;86.60;99582.69;5083068;28;20032;-80
2021/04/06 09:32:18;;;;;;;14.25;2.28;;;;;;;2.52;84.26;99569.03;5065608;28;20496;-80
2021/04/06 09:34:46;;;;;;;5.97;1.63;;;;;;;3.73;79.03;99570.25;5083432;28;20028;-80
2021/04/06 09:37:15;;;;;;;8.57;1.30;;;;;;;4.74;73.53;99560.81;5066172;28;20361;-81
2021/04/06 09:39:46;;;;;;;6.82;1.67;;;;;;;4.08;77.60;99571.72;5082455;28;20040;-81
2021/04/06 09:42:12;;;;;;;7.60;2.58;;;;;;;4.82;76.12;99579.59;5084185;28;20099;-81
2021/04/06 09:44:40;;;;;;;9.25;1.30;;;;;;;3.18;79.46;99589.31;5082180;28;20025;-81
2021/04/06 09:47:14;;;;;;;8.57;1.40;;;;;;;1.86;84.10;99591.19;5081757;28;20025;-80
2021/04/06 09:49:43;;;;;;;11.38;1.70;;;;;;;1.33;86.45;99589.38;5065810;28;20025;-81
2021/04/06 09:52:18;;;;;;;7.15;1.20;;;;;;;1.21;88.26;99597.00;5084486;28;20039;-81
2021/04/06 09:54:53;;;;;;;5.32;1.13;;;;;;;1.04;88.79;99596.91;5084631;28;20020;-81
2021/04/06 09:57:19;;;;;;;7.53;1.20;;;;;;;0.99;89.93;99584.13;5064919;28;20020;-80
2021/04/06 09:59:54;;;;;;;10.82;1.45;;;;;;;0.71;91.07;99595.00;5082792;28;20029;-80
2021/04/06 10:02:22;;;;;;;6.82;1.80;;;;;;;0.68;92.34;99609.50;5081298;28;20047;-80
2021/04/06 10:04:49;;;;;;;7.20;1.33;;;;;;;0.42;94.87;99619.50;5081409;28;20023;-80
2021/04/06 10:07:17;;;;;;;11.15;1.40;;;;;;;0.13;98.50;99614.19;5064178;28;20369;-80
2021/04/06 10:09:51;;;;;;;7.47;1.63;;;;;;;-0.19;99.76;99623.19;5064735;28;20396;-80
2021/04/06 10:12:19;;;;;;;4.95;1.20;;;;;;;-0.47;100.00;99621.22;5065179;28;20025;-80
2021/04/06 10:14:45;;;;;;;5.68;1.23;;;;;;;-0.50;100.00;99622.88;5080746;28;20032;-80
2021/04/06 10:17:15;;;;;;;7.22;1.63;;;;;;;-0.50;100.00;99625.41;5065743;28;20059;-80
2021/04/06 10:19:45;;;;;;;8.07;1.58;;;;;;;-0.45;100.00;99612.75;5083092;28;20021;-80
2021/04/06 10:22:14;;;;;;;10.27;1.73;;;;;;;-0.40;100.00;99606.88;5083979;28;20408;-80
2021/04/06 10:24:53;;;;;;;11.35;2.70;;;;;;;0.18;100.00;99594.66;5083345;28;20033;-80
2021/04/06 10:27:26;;;;;;;8.73;1.67;;;;;;;0.77;94.74;99588.28;5084232;28;20039;-80
2021/04/06 10:30:05;;;;;;;9.75;1.70;;;;;;;1.48;90.04;99574.09;5065009;28;20052;-81
2021/04/06 10:32:42;;;;;;;8.38;1.58;;;;;;;1.64;89.71;99569.88;5066081;28;20025;-81
2021/04/06 10:35:29;;;;;;;6.50;1.50;;;;;;;1.81;90.04;99570.72;5086828;28;20111;-81
2021/04/06 10:38:00;;;;;;;11.45;1.55;;;;;;;1.79;89.23;99564.78;5074713;23;20140;-77
2021/04/06 10:40:33;;;;;;;7.82;1.77;;;;;;;1.75;90.97;99569.88;5035698;28;20110;-76
2021/04/06 10:43:19;;;;;;;8.85;1.90;;;;;;;1.44;92.97;99564.69;5035536;28;20070;-78
2021/04/06 10:45:51;;;;;;;11.05;1.58;;;;;;;1.25;92.40;99562.94;5053314;28;20085;-78
2021/04/06 10:48:20;;;;;;;6.45;1.90;;;;;;;0.85;94.42;99552.56;5051783;28;20025;-77
2021/04/06 10:50:51;;;;;;;8.93;2.00;;;;;;;0.79;96.53;99553.38;5035165;28;20028;-76
2021/04/06 10:53:29;;;;;;;12.52;3.20;;;;;;;0.70;96.21;99561.00;5035963;28;20025;-76
2021/04/06 10:55:59;;;;;;;7.32;1.75;;;;;;;0.52;96.98;99555.78;5053142;28;20101;-76
2021/04/06 10:58:27;;;;;;;9.55;1.73;;;;;;;2.35;91.98;99557.13;5052836;28;20031;-76
2021/04/06 11:01:04;;;;;;;9.25;1.45;;;;;;;2.28;91.41;99556.28;5035227;28;20112;-76
2021/04/06 11:03:43;;;;;;;8.23;1.75;;;;;;;4.50;84.71;99543.97;5052875;28;20021;-76
2021/04/06 11:06:14;;;;;;;8.48;2.05;;;;;;;4.80;81.77;99541.09;5034974;28;20036;-76
2021/04/06 11:08:42;;;;;;;7.97;1.63;;;;;;;3.97;79.84;99545.28;5052686;28;20032;-76
2021/04/06 11:11:28;;;;;;;8.68;1.50;;;;;;;3.57;81.25;99540.41;5034933;28;20086;-76
2021/04/06 11:13:59;;;;;;;11.43;1.55;;;;;;;2.59;88.69;99539.16;5052739;28;20021;-76
2021/04/06 11:16:25;;;;;;;6.72;1.30;;;;;;;2.06;91.17;99553.72;5035039;28;20032;-77
2021/04/06 11:18:59;;;;;;;2.42;0.70;;;;;;;1.41;91.01;99558.72;5034967;28;20013;-77
2021/04/06 11:21:25;;;;;;;3.80;0.70;;;;;;;0.60;95.12;99556.69;5052726;28;20503;-76
2021/04/06 11:23:51;;;;;;;7.07;1.27;;;;;;;0.49;96.99;99563.41;5035048;28;20049;-77
2021/04/06 11:26:17;;;;;;;4.32;0.65;;;;;;;0.03;99.73;99565.63;5053163;28;20095;-77
2021/04/06 11:28:42;;;;;;;6.90;0.80;;;;;;;-0.07;99.52;99557.06;5038752;28;20500;-77
2021/04/06 11:31:08;;;;;;;4.55;0.70;;;;;;;-0.16;100.00;99557.81;5056751;28;20032;-77
2021/04/06 11:33:34;;;;;;;2.15;0.60;;;;;;;-0.16;98.63;99559.53;5056758;28;20033;-78
2021/04/06 11:35:59;;;;;;;5.63;1.85;;;;;;;-0.16;98.22;99550.19;5038778;28;20032;-77
2021/04/06 11:38:24;;;;;;;4.95;1.15;;;;;;;0.01;98.10;99557.13;5038791;28;20523;-78